sensor_id;sensor_type;location;lat;lon;timestamp;P1;durP1;ratioP1;P2;durP2;ratioP2
51214;SDS011;63849;47.546;19.254;2022-12-29T00:00:05;18.42;;;13.65;;
51214;SDS011;63849;47.546;19.254;2022-12-29T00:02:32;24.50;;;15.32;;
51214;SDS011;63849;47.546;19.254;2022-12-29T00:04:58;20.90;;;14.35;;
51214;SDS011;63849;47.546;19.254;2022-12-29T00:07:23;21.70;;;14.55;;
51214;SDS011;63849;47.546;19.254;2022-12-29T00:09:49;20.30;;;13.65;;
51214;SDS011;63849;47.546;19.254;2022-12-29T00:12:15;23.70;;;14.23;;
51214;SDS011;63849;47.546;19.254;2022-12-29T00:14:41;22.83;;;14.85;;
51214;SDS011;63849;47.546;19.254;2022-12-29T00:17:25;23.20;;;14.20;;
51214;SDS011;63849;47.546;19.254;2022-12-29T00:19:50;20.65;;;13.95;;
51214;SDS011;63849;47.546;19.254;2022-12-29T00:22:34;23.25;;;15.15;;
51214;SDS011;63849;47.546;19.254;2022-12-29T00:25:19;26.90;;;16.50;;
51214;SDS011;63849;47.546;19.254;2022-12-29T00:28:04;27.45;;;17.45;;
51214;SDS011;63849;47.546;19.254;2022-12-29T00:31:09;35.40;;;18.83;;
51214;SDS011;63849;47.546;19.254;2022-12-29T00:33:55;26.90;;;16.30;;
51214;SDS011;63849;47.546;19.254;2022-12-29T00:36:40;29.23;;;16.67;;
51214;SDS011;63849;47.546;19.254;2022-12-29T00:39:10;28.40;;;18.65;;
51214;SDS011;63849;47.546;19.254;2022-12-29T00:42:02;38.80;;;18.98;;
51214;SDS011;63849;47.546;19.254;2022-12-29T00:44:47;35.17;;;20.65;;
51214;SDS011;63849;47.546;19.254;2022-12-29T00:47:13;33.30;;;19.13;;
51214;SDS011;63849;47.546;19.254;2022-12-29T00:49:39;35.08;;;20.33;;
51214;SDS011;63849;47.546;19.254;2022-12-29T00:52:06;41.92;;;25.02;;
51214;SDS011;63849;47.546;19.254;2022-12-29T00:54:34;30.17;;;19.58;;
51214;SDS011;63849;47.546;19.254;2022-12-29T00:57:02;44.60;;;29.25;;
51214;SDS011;63849;47.546;19.254;2022-12-29T00:59:29;41.80;;;29.33;;
51214;SDS011;63849;47.546;19.254;2022-12-29T01:01:55;43.00;;;26.95;;
51214;SDS011;63849;47.546;19.254;2022-12-29T01:04:22;68.97;;;42.10;;
51214;SDS011;63849;47.546;19.254;2022-12-29T01:06:49;71.63;;;45.42;;
51214;SDS011;63849;47.546;19.254;2022-12-29T01:09:16;68.57;;;45.55;;
51214;SDS011;63849;47.546;19.254;2022-12-29T01:12:01;46.58;;;31.58;;
51214;SDS011;63849;47.546;19.254;2022-12-29T01:14:27;32.13;;;24.70;;
51214;SDS011;63849;47.546;19.254;2022-12-29T01:16:53;27.05;;;20.27;;
51214;SDS011;63849;47.546;19.254;2022-12-29T01:19:20;26.23;;;20.15;;
51214;SDS011;63849;47.546;19.254;2022-12-29T01:21:46;25.15;;;18.77;;
51214;SDS011;63849;47.546;19.254;2022-12-29T01:24:13;24.92;;;17.23;;
51214;SDS011;63849;47.546;19.254;2022-12-29T01:26:40;20.35;;;13.85;;
51214;SDS011;63849;47.546;19.254;2022-12-29T01:29:06;21.88;;;15.07;;
51214;SDS011;63849;47.546;19.254;2022-12-29T01:31:31;25.80;;;16.30;;
51214;SDS011;63849;47.546;19.254;2022-12-29T01:33:57;29.60;;;16.98;;
51214;SDS011;63849;47.546;19.254;2022-12-29T01:36:23;28.52;;;17.48;;
51214;SDS011;63849;47.546;19.254;2022-12-29T01:38:49;23.83;;;15.32;;
51214;SDS011;63849;47.546;19.254;2022-12-29T01:41:15;22.20;;;14.60;;
51214;SDS011;63849;47.546;19.254;2022-12-29T01:48:49;20.92;;;14.50;;
51214;SDS011;63849;47.546;19.254;2022-12-29T01:51:29;23.20;;;14.88;;
51214;SDS011;63849;47.546;19.254;2022-12-29T01:53:59;21.00;;;15.05;;
51214;SDS011;63849;47.546;19.254;2022-12-29T01:56:27;20.27;;;14.30;;
51214;SDS011;63849;47.546;19.254;2022-12-29T01:59:00;19.42;;;14.63;;
51214;SDS011;63849;47.546;19.254;2022-12-29T02:01:31;19.65;;;14.95;;
51214;SDS011;63849;47.546;19.254;2022-12-29T02:03:57;21.52;;;14.75;;
51214;SDS011;63849;47.546;19.254;2022-12-29T02:06:26;20.95;;;14.38;;
51214;SDS011;63849;47.546;19.254;2022-12-29T02:08:57;23.50;;;15.23;;
51214;SDS011;63849;47.546;19.254;2022-12-29T02:11:24;24.38;;;15.38;;
51214;SDS011;63849;47.546;19.254;2022-12-29T02:13:52;23.88;;;15.88;;
51214;SDS011;63849;47.546;19.254;2022-12-29T02:16:33;23.65;;;15.82;;
51214;SDS011;63849;47.546;19.254;2022-12-29T02:19:32;21.60;;;14.63;;
51214;SDS011;63849;47.546;19.254;2022-12-29T02:22:16;21.33;;;15.23;;
51214;SDS011;63849;47.546;19.254;2022-12-29T02:27:43;24.05;;;16.05;;
51214;SDS011;63849;47.546;19.254;2022-12-29T02:36:22;21.75;;;15.15;;
51214;SDS011;63849;47.546;19.254;2022-12-29T02:39:05;22.08;;;14.80;;
51214;SDS011;63849;47.546;19.254;2022-12-29T02:42:14;21.40;;;15.30;;
51214;SDS011;63849;47.546;19.254;2022-12-29T02:47:16;26.83;;;18.45;;
51214;SDS011;63849;47.546;19.254;2022-12-29T02:50:00;27.58;;;19.70;;
51214;SDS011;63849;47.546;19.254;2022-12-29T02:52:49;26.92;;;18.80;;
51214;SDS011;63849;47.546;19.254;2022-12-29T02:55:27;23.23;;;16.67;;
51214;SDS011;63849;47.546;19.254;2022-12-29T03:07:09;27.25;;;19.02;;
51214;SDS011;63849;47.546;19.254;2022-12-29T03:12:30;26.52;;;18.35;;
51214;SDS011;63849;47.546;19.254;2022-12-29T03:15:22;25.05;;;17.05;;
51214;SDS011;63849;47.546;19.254;2022-12-29T03:18:15;23.83;;;18.38;;
51214;SDS011;63849;47.546;19.254;2022-12-29T03:23:16;25.65;;;17.45;;
51214;SDS011;63849;47.546;19.254;2022-12-29T03:25:46;27.70;;;19.63;;
51214;SDS011;63849;47.546;19.254;2022-12-29T03:28:20;29.90;;;20.30;;
51214;SDS011;63849;47.546;19.254;2022-12-29T03:30:49;27.67;;;18.98;;
51214;SDS011;63849;47.546;19.254;2022-12-29T03:33:17;24.67;;;18.15;;
51214;SDS011;63849;47.546;19.254;2022-12-29T03:35:46;28.95;;;19.15;;
51214;SDS011;63849;47.546;19.254;2022-12-29T03:38:20;27.48;;;18.92;;
51214;SDS011;63849;47.546;19.254;2022-12-29T03:40:55;29.92;;;20.90;;
51214;SDS011;63849;47.546;19.254;2022-12-29T03:43:24;32.20;;;21.55;;
51214;SDS011;63849;47.546;19.254;2022-12-29T03:45:51;28.42;;;19.52;;
51214;SDS011;63849;47.546;19.254;2022-12-29T03:48:17;27.45;;;19.48;;
51214;SDS011;63849;47.546;19.254;2022-12-29T03:50:43;29.20;;;20.33;;
51214;SDS011;63849;47.546;19.254;2022-12-29T03:53:08;27.83;;;20.85;;
51214;SDS011;63849;47.546;19.254;2022-12-29T03:55:34;29.13;;;20.70;;
51214;SDS011;63849;47.546;19.254;2022-12-29T03:58:00;29.88;;;21.13;;
51214;SDS011;63849;47.546;19.254;2022-12-29T04:00:26;26.77;;;19.60;;
51214;SDS011;63849;47.546;19.254;2022-12-29T04:02:53;27.85;;;20.77;;
51214;SDS011;63849;47.546;19.254;2022-12-29T04:05:19;30.50;;;22.23;;
51214;SDS011;63849;47.546;19.254;2022-12-29T04:07:44;32.05;;;21.65;;
51214;SDS011;63849;47.546;19.254;2022-12-29T04:10:10;32.42;;;21.83;;
51214;SDS011;63849;47.546;19.254;2022-12-29T04:12:36;35.75;;;23.90;;
51214;SDS011;63849;47.546;19.254;2022-12-29T04:15:02;32.92;;;23.58;;
51214;SDS011;63849;47.546;19.254;2022-12-29T04:17:28;33.25;;;24.02;;
51214;SDS011;63849;47.546;19.254;2022-12-29T04:19:53;34.20;;;23.00;;
51214;SDS011;63849;47.546;19.254;2022-12-29T04:22:39;35.88;;;24.30;;
51214;SDS011;63849;47.546;19.254;2022-12-29T04:25:05;34.20;;;22.95;;
51214;SDS011;63849;47.546;19.254;2022-12-29T04:27:31;36.22;;;23.38;;
51214;SDS011;63849;47.546;19.254;2022-12-29T04:29:57;36.38;;;25.08;;
51214;SDS011;63849;47.546;19.254;2022-12-29T04:32:23;38.47;;;25.55;;
51214;SDS011;63849;47.546;19.254;2022-12-29T04:34:49;40.05;;;25.70;;
51214;SDS011;63849;47.546;19.254;2022-12-29T04:37:14;36.15;;;25.02;;
51214;SDS011;63849;47.546;19.254;2022-12-29T04:39:40;36.78;;;24.75;;
51214;SDS011;63849;47.546;19.254;2022-12-29T04:42:06;36.50;;;25.42;;
51214;SDS011;63849;47.546;19.254;2022-12-29T04:44:32;35.63;;;24.63;;
51214;SDS011;63849;47.546;19.254;2022-12-29T04:46:57;39.55;;;26.20;;
51214;SDS011;63849;47.546;19.254;2022-12-29T04:49:23;41.90;;;25.42;;
51214;SDS011;63849;47.546;19.254;2022-12-29T04:51:49;39.70;;;25.10;;
51214;SDS011;63849;47.546;19.254;2022-12-29T04:54:14;41.30;;;25.38;;
51214;SDS011;63849;47.546;19.254;2022-12-29T04:56:40;37.50;;;25.63;;
51214;SDS011;63849;47.546;19.254;2022-12-29T04:59:06;39.83;;;26.90;;
51214;SDS011;63849;47.546;19.254;2022-12-29T05:01:32;42.47;;;28.00;;
51214;SDS011;63849;47.546;19.254;2022-12-29T05:03:57;41.58;;;26.67;;
51214;SDS011;63849;47.546;19.254;2022-12-29T05:06:23;37.30;;;25.10;;
51214;SDS011;63849;47.546;19.254;2022-12-29T05:08:49;39.85;;;25.38;;
51214;SDS011;63849;47.546;19.254;2022-12-29T05:11:15;38.38;;;25.13;;
51214;SDS011;63849;47.546;19.254;2022-12-29T05:13:40;39.38;;;24.60;;
51214;SDS011;63849;47.546;19.254;2022-12-29T05:16:06;39.70;;;25.42;;
51214;SDS011;63849;47.546;19.254;2022-12-29T05:18:32;36.25;;;25.33;;
51214;SDS011;63849;47.546;19.254;2022-12-29T05:20:57;39.65;;;24.95;;
51214;SDS011;63849;47.546;19.254;2022-12-29T05:23:23;35.13;;;24.42;;
51214;SDS011;63849;47.546;19.254;2022-12-29T05:25:49;40.35;;;28.20;;
51214;SDS011;63849;47.546;19.254;2022-12-29T05:28:15;40.88;;;26.00;;
51214;SDS011;63849;47.546;19.254;2022-12-29T05:30:41;41.00;;;26.60;;
51214;SDS011;63849;47.546;19.254;2022-12-29T05:33:07;36.45;;;26.52;;
51214;SDS011;63849;47.546;19.254;2022-12-29T05:35:36;43.17;;;26.90;;
51214;SDS011;63849;47.546;19.254;2022-12-29T05:38:02;39.72;;;27.58;;
51214;SDS011;63849;47.546;19.254;2022-12-29T05:40:28;38.80;;;26.65;;
51214;SDS011;63849;47.546;19.254;2022-12-29T05:42:54;48.13;;;29.33;;
51214;SDS011;63849;47.546;19.254;2022-12-29T05:45:20;54.22;;;34.17;;
51214;SDS011;63849;47.546;19.254;2022-12-29T05:47:48;47.38;;;30.55;;
51214;SDS011;63849;47.546;19.254;2022-12-29T05:50:14;54.72;;;33.78;;
51214;SDS011;63849;47.546;19.254;2022-12-29T05:52:40;55.08;;;32.28;;
51214;SDS011;63849;47.546;19.254;2022-12-29T05:55:06;57.83;;;36.05;;
51214;SDS011;63849;47.546;19.254;2022-12-29T05:57:32;54.65;;;34.33;;
51214;SDS011;63849;47.546;19.254;2022-12-29T05:59:58;56.65;;;34.78;;
51214;SDS011;63849;47.546;19.254;2022-12-29T06:02:23;52.03;;;33.55;;
51214;SDS011;63849;47.546;19.254;2022-12-29T06:04:49;99.00;;;59.40;;
51214;SDS011;63849;47.546;19.254;2022-12-29T06:07:15;90.13;;;52.03;;
51214;SDS011;63849;47.546;19.254;2022-12-29T06:09:41;53.65;;;33.45;;
51214;SDS011;63849;47.546;19.254;2022-12-29T06:12:07;65.55;;;38.10;;
51214;SDS011;63849;47.546;19.254;2022-12-29T06:14:32;67.30;;;38.30;;
51214;SDS011;63849;47.546;19.254;2022-12-29T06:16:58;69.63;;;41.65;;
51214;SDS011;63849;47.546;19.254;2022-12-29T06:19:24;68.95;;;40.55;;
51214;SDS011;63849;47.546;19.254;2022-12-29T06:21:50;74.85;;;43.53;;
51214;SDS011;63849;47.546;19.254;2022-12-29T06:24:17;62.25;;;37.15;;
51214;SDS011;63849;47.546;19.254;2022-12-29T06:26:43;52.33;;;31.92;;
51214;SDS011;63849;47.546;19.254;2022-12-29T06:29:09;54.33;;;32.67;;
51214;SDS011;63849;47.546;19.254;2022-12-29T06:31:35;53.60;;;33.33;;
51214;SDS011;63849;47.546;19.254;2022-12-29T06:34:00;52.17;;;32.55;;
51214;SDS011;63849;47.546;19.254;2022-12-29T06:36:28;50.95;;;30.38;;
51214;SDS011;63849;47.546;19.254;2022-12-29T06:38:53;45.90;;;31.27;;
51214;SDS011;63849;47.546;19.254;2022-12-29T06:41:20;49.72;;;32.28;;
51214;SDS011;63849;47.546;19.254;2022-12-29T06:43:46;54.10;;;32.72;;
51214;SDS011;63849;47.546;19.254;2022-12-29T06:46:11;45.92;;;30.90;;
51214;SDS011;63849;47.546;19.254;2022-12-29T06:48:37;45.65;;;31.95;;
51214;SDS011;63849;47.546;19.254;2022-12-29T06:51:03;47.17;;;31.08;;
51214;SDS011;63849;47.546;19.254;2022-12-29T06:53:29;47.70;;;31.02;;
51214;SDS011;63849;47.546;19.254;2022-12-29T06:55:55;47.30;;;32.78;;
51214;SDS011;63849;47.546;19.254;2022-12-29T06:58:22;47.60;;;31.20;;
51214;SDS011;63849;47.546;19.254;2022-12-29T07:00:48;47.33;;;31.60;;
51214;SDS011;63849;47.546;19.254;2022-12-29T07:03:14;47.65;;;30.27;;
51214;SDS011;63849;47.546;19.254;2022-12-29T07:05:40;44.95;;;29.75;;
51214;SDS011;63849;47.546;19.254;2022-12-29T07:08:06;46.13;;;30.80;;
51214;SDS011;63849;47.546;19.254;2022-12-29T07:10:31;42.33;;;30.13;;
51214;SDS011;63849;47.546;19.254;2022-12-29T07:12:57;42.15;;;28.38;;
51214;SDS011;63849;47.546;19.254;2022-12-29T07:15:23;41.13;;;27.65;;
51214;SDS011;63849;47.546;19.254;2022-12-29T07:17:49;39.15;;;28.02;;
51214;SDS011;63849;47.546;19.254;2022-12-29T07:20:14;40.95;;;27.95;;
51214;SDS011;63849;47.546;19.254;2022-12-29T07:22:41;38.78;;;26.83;;
51214;SDS011;63849;47.546;19.254;2022-12-29T07:25:07;39.10;;;27.35;;
51214;SDS011;63849;47.546;19.254;2022-12-29T07:27:33;37.70;;;26.33;;
51214;SDS011;63849;47.546;19.254;2022-12-29T07:29:59;38.63;;;26.90;;
51214;SDS011;63849;47.546;19.254;2022-12-29T07:32:24;39.15;;;27.98;;
51214;SDS011;63849;47.546;19.254;2022-12-29T07:34:50;37.10;;;26.35;;
51214;SDS011;63849;47.546;19.254;2022-12-29T07:37:16;36.97;;;26.65;;
51214;SDS011;63849;47.546;19.254;2022-12-29T07:39:42;37.40;;;25.95;;
51214;SDS011;63849;47.546;19.254;2022-12-29T07:42:08;40.20;;;28.15;;
51214;SDS011;63849;47.546;19.254;2022-12-29T07:44:34;39.03;;;28.25;;
51214;SDS011;63849;47.546;19.254;2022-12-29T07:47:01;47.33;;;32.13;;
51214;SDS011;63849;47.546;19.254;2022-12-29T07:49:27;49.00;;;32.97;;
51214;SDS011;63849;47.546;19.254;2022-12-29T07:51:53;42.08;;;28.30;;
51214;SDS011;63849;47.546;19.254;2022-12-29T07:54:19;37.17;;;25.35;;
51214;SDS011;63849;47.546;19.254;2022-12-29T07:56:45;37.55;;;25.70;;
51214;SDS011;63849;47.546;19.254;2022-12-29T07:59:12;37.38;;;26.73;;
51214;SDS011;63849;47.546;19.254;2022-12-29T08:01:38;38.33;;;27.20;;
51214;SDS011;63849;47.546;19.254;2022-12-29T08:04:04;37.75;;;27.58;;
51214;SDS011;63849;47.546;19.254;2022-12-29T08:06:30;40.45;;;26.73;;
51214;SDS011;63849;47.546;19.254;2022-12-29T08:08:56;37.60;;;27.52;;
51214;SDS011;63849;47.546;19.254;2022-12-29T08:11:22;37.70;;;26.75;;
51214;SDS011;63849;47.546;19.254;2022-12-29T08:13:49;42.38;;;29.77;;
51214;SDS011;63849;47.546;19.254;2022-12-29T08:16:14;45.70;;;29.40;;
51214;SDS011;63849;47.546;19.254;2022-12-29T08:18:40;44.80;;;28.38;;
51214;SDS011;63849;47.546;19.254;2022-12-29T08:21:06;40.03;;;27.45;;
51214;SDS011;63849;47.546;19.254;2022-12-29T08:23:32;34.33;;;25.13;;
51214;SDS011;63849;47.546;19.254;2022-12-29T08:26:02;39.03;;;26.40;;
51214;SDS011;63849;47.546;19.254;2022-12-29T08:28:29;41.17;;;27.83;;
51214;SDS011;63849;47.546;19.254;2022-12-29T08:30:59;41.75;;;29.20;;
51214;SDS011;63849;47.546;19.254;2022-12-29T08:33:26;40.20;;;27.98;;
51214;SDS011;63849;47.546;19.254;2022-12-29T08:35:52;44.03;;;30.05;;
51214;SDS011;63849;47.546;19.254;2022-12-29T08:38:24;48.70;;;32.70;;
51214;SDS011;63849;47.546;19.254;2022-12-29T08:40:51;43.30;;;29.13;;
51214;SDS011;63849;47.546;19.254;2022-12-29T08:43:17;54.30;;;35.40;;
51214;SDS011;63849;47.546;19.254;2022-12-29T08:45:43;43.30;;;31.67;;
51214;SDS011;63849;47.546;19.254;2022-12-29T08:48:09;38.60;;;28.05;;
51214;SDS011;63849;47.546;19.254;2022-12-29T08:50:35;40.88;;;29.27;;
51214;SDS011;63849;47.546;19.254;2022-12-29T08:53:00;42.20;;;29.00;;
51214;SDS011;63849;47.546;19.254;2022-12-29T08:55:27;40.47;;;29.67;;
51214;SDS011;63849;47.546;19.254;2022-12-29T08:57:53;44.00;;;29.73;;
51214;SDS011;63849;47.546;19.254;2022-12-29T09:00:19;42.50;;;30.67;;
51214;SDS011;63849;47.546;19.254;2022-12-29T09:02:45;44.22;;;29.52;;
51214;SDS011;63849;47.546;19.254;2022-12-29T09:05:11;40.00;;;29.08;;
51214;SDS011;63849;47.546;19.254;2022-12-29T09:07:37;40.53;;;29.80;;
51214;SDS011;63849;47.546;19.254;2022-12-29T09:10:04;38.08;;;29.85;;
51214;SDS011;63849;47.546;19.254;2022-12-29T09:12:30;45.13;;;31.00;;
51214;SDS011;63849;47.546;19.254;2022-12-29T09:14:56;40.42;;;29.85;;
51214;SDS011;63849;47.546;19.254;2022-12-29T09:17:21;39.83;;;28.67;;
51214;SDS011;63849;47.546;19.254;2022-12-29T09:20:06;38.22;;;29.80;;
51214;SDS011;63849;47.546;19.254;2022-12-29T09:22:33;39.60;;;29.52;;
51214;SDS011;63849;47.546;19.254;2022-12-29T09:25:00;40.33;;;29.05;;
51214;SDS011;63849;47.546;19.254;2022-12-29T09:27:25;45.03;;;29.98;;
51214;SDS011;63849;47.546;19.254;2022-12-29T09:29:51;48.42;;;33.58;;
51214;SDS011;63849;47.546;19.254;2022-12-29T09:32:17;43.92;;;30.60;;
51214;SDS011;63849;47.546;19.254;2022-12-29T09:34:43;41.85;;;29.90;;
51214;SDS011;63849;47.546;19.254;2022-12-29T09:37:08;42.55;;;30.88;;
51214;SDS011;63849;47.546;19.254;2022-12-29T09:39:34;38.42;;;28.88;;
51214;SDS011;63849;47.546;19.254;2022-12-29T09:44:48;38.85;;;29.77;;
51214;SDS011;63849;47.546;19.254;2022-12-29T09:47:18;42.92;;;29.73;;
51214;SDS011;63849;47.546;19.254;2022-12-29T09:50:02;42.95;;;30.48;;
51214;SDS011;63849;47.546;19.254;2022-12-29T09:52:39;37.67;;;27.05;;
51214;SDS011;63849;47.546;19.254;2022-12-29T09:55:13;39.55;;;28.15;;
51214;SDS011;63849;47.546;19.254;2022-12-29T09:57:56;38.38;;;27.38;;
51214;SDS011;63849;47.546;19.254;2022-12-29T10:00:37;39.85;;;27.85;;
51214;SDS011;63849;47.546;19.254;2022-12-29T10:03:15;45.80;;;31.63;;
51214;SDS011;63849;47.546;19.254;2022-12-29T10:05:46;43.78;;;30.33;;
51214;SDS011;63849;47.546;19.254;2022-12-29T10:08:22;41.63;;;29.88;;
51214;SDS011;63849;47.546;19.254;2022-12-29T10:24:35;36.28;;;27.00;;
51214;SDS011;63849;47.546;19.254;2022-12-29T10:27:03;38.30;;;26.58;;
51214;SDS011;63849;47.546;19.254;2022-12-29T10:29:37;37.35;;;29.23;;
51214;SDS011;63849;47.546;19.254;2022-12-29T10:35:05;42.63;;;32.78;;
51214;SDS011;63849;47.546;19.254;2022-12-29T10:43:31;37.30;;;26.75;;
51214;SDS011;63849;47.546;19.254;2022-12-29T10:46:20;43.00;;;30.45;;
51214;SDS011;63849;47.546;19.254;2022-12-29T10:48:52;35.58;;;27.15;;
51214;SDS011;63849;47.546;19.254;2022-12-29T10:51:22;36.22;;;27.40;;
51214;SDS011;63849;47.546;19.254;2022-12-29T10:54:14;38.75;;;26.92;;
51214;SDS011;63849;47.546;19.254;2022-12-29T10:56:39;37.33;;;28.10;;
51214;SDS011;63849;47.546;19.254;2022-12-29T11:07:05;40.67;;;30.80;;
51214;SDS011;63849;47.546;19.254;2022-12-29T11:09:33;36.53;;;28.48;;
51214;SDS011;63849;47.546;19.254;2022-12-29T11:12:17;34.83;;;26.90;;
51214;SDS011;63849;47.546;19.254;2022-12-29T11:14:44;35.70;;;27.25;;
51214;SDS011;63849;47.546;19.254;2022-12-29T11:17:12;35.58;;;27.15;;
51214;SDS011;63849;47.546;19.254;2022-12-29T11:19:40;38.58;;;27.58;;
51214;SDS011;63849;47.546;19.254;2022-12-29T11:22:23;38.25;;;27.17;;
51214;SDS011;63849;47.546;19.254;2022-12-29T11:24:51;34.63;;;27.75;;
51214;SDS011;63849;47.546;19.254;2022-12-29T11:27:22;39.50;;;29.00;;
51214;SDS011;63849;47.546;19.254;2022-12-29T11:29:53;36.83;;;28.38;;
51214;SDS011;63849;47.546;19.254;2022-12-29T11:32:24;36.15;;;28.05;;
51214;SDS011;63849;47.546;19.254;2022-12-29T11:34:51;36.05;;;28.23;;
51214;SDS011;63849;47.546;19.254;2022-12-29T11:37:18;38.28;;;27.13;;
51214;SDS011;63849;47.546;19.254;2022-12-29T11:39:54;36.90;;;28.13;;
51214;SDS011;63849;47.546;19.254;2022-12-29T11:42:34;39.20;;;27.95;;
51214;SDS011;63849;47.546;19.254;2022-12-29T11:45:06;40.10;;;28.52;;
51214;SDS011;63849;47.546;19.254;2022-12-29T11:47:32;42.50;;;29.73;;
51214;SDS011;63849;47.546;19.254;2022-12-29T11:50:00;39.35;;;29.35;;
51214;SDS011;63849;47.546;19.254;2022-12-29T11:52:30;38.97;;;29.00;;
51214;SDS011;63849;47.546;19.254;2022-12-29T11:55:00;40.97;;;29.30;;
51214;SDS011;63849;47.546;19.254;2022-12-29T11:57:29;41.85;;;31.05;;
51214;SDS011;63849;47.546;19.254;2022-12-29T11:59:58;45.95;;;33.25;;
51214;SDS011;63849;47.546;19.254;2022-12-29T12:07:55;64.97;;;44.75;;
51214;SDS011;63849;47.546;19.254;2022-12-29T12:10:28;58.47;;;39.58;;
51214;SDS011;63849;47.546;19.254;2022-12-29T12:15:52;48.88;;;35.05;;
51214;SDS011;63849;47.546;19.254;2022-12-29T12:18:34;43.60;;;32.92;;
51214;SDS011;63849;47.546;19.254;2022-12-29T12:24:22;43.42;;;32.95;;
51214;SDS011;63849;47.546;19.254;2022-12-29T12:29:38;46.42;;;33.20;;
51214;SDS011;63849;47.546;19.254;2022-12-29T12:32:27;47.78;;;33.88;;
51214;SDS011;63849;47.546;19.254;2022-12-29T12:35:31;43.03;;;32.28;;
51214;SDS011;63849;47.546;19.254;2022-12-29T12:38:02;38.47;;;29.50;;
51214;SDS011;63849;47.546;19.254;2022-12-29T12:57:14;43.63;;;31.00;;
51214;SDS011;63849;47.546;19.254;2022-12-29T13:02:28;45.53;;;31.85;;
51214;SDS011;63849;47.546;19.254;2022-12-29T13:07:49;47.78;;;33.28;;
51214;SDS011;63849;47.546;19.254;2022-12-29T13:13:28;47.10;;;31.20;;
51214;SDS011;63849;47.546;19.254;2022-12-29T13:16:10;44.83;;;31.73;;
51214;SDS011;63849;47.546;19.254;2022-12-29T13:30:09;52.20;;;33.08;;
51214;SDS011;63849;47.546;19.254;2022-12-29T13:32:55;45.63;;;33.20;;
51214;SDS011;63849;47.546;19.254;2022-12-29T13:38:17;54.58;;;36.72;;
51214;SDS011;63849;47.546;19.254;2022-12-29T13:40:53;55.63;;;36.20;;
51214;SDS011;63849;47.546;19.254;2022-12-29T13:43:21;56.60;;;38.53;;
51214;SDS011;63849;47.546;19.254;2022-12-29T13:51:08;44.38;;;34.05;;
51214;SDS011;63849;47.546;19.254;2022-12-29T13:56:39;47.85;;;37.42;;
51214;SDS011;63849;47.546;19.254;2022-12-29T14:04:55;51.53;;;37.08;;
51214;SDS011;63849;47.546;19.254;2022-12-29T14:07:29;49.67;;;35.67;;
51214;SDS011;63849;47.546;19.254;2022-12-29T14:10:03;51.63;;;38.05;;
51214;SDS011;63849;47.546;19.254;2022-12-29T14:12:36;48.35;;;35.13;;
51214;SDS011;63849;47.546;19.254;2022-12-29T14:17:34;52.17;;;37.42;;
51214;SDS011;63849;47.546;19.254;2022-12-29T14:20:01;51.45;;;36.92;;
51214;SDS011;63849;47.546;19.254;2022-12-29T14:22:29;50.92;;;37.95;;
51214;SDS011;63849;47.546;19.254;2022-12-29T14:24:55;56.17;;;38.28;;
51214;SDS011;63849;47.546;19.254;2022-12-29T14:34:55;56.42;;;40.40;;
51214;SDS011;63849;47.546;19.254;2022-12-29T14:42:38;60.35;;;42.28;;
51214;SDS011;63849;47.546;19.254;2022-12-29T14:45:06;70.35;;;45.65;;
51214;SDS011;63849;47.546;19.254;2022-12-29T14:47:51;72.78;;;51.05;;
51214;SDS011;63849;47.546;19.254;2022-12-29T14:53:06;62.88;;;44.08;;
51214;SDS011;63849;47.546;19.254;2022-12-29T14:55:55;69.88;;;48.80;;
51214;SDS011;63849;47.546;19.254;2022-12-29T14:58:25;69.68;;;46.10;;
51214;SDS011;63849;47.546;19.254;2022-12-29T15:00:55;61.35;;;43.38;;
51214;SDS011;63849;47.546;19.254;2022-12-29T15:05:58;101.10;;;66.32;;
51214;SDS011;63849;47.546;19.254;2022-12-29T15:08:25;93.95;;;61.92;;
51214;SDS011;63849;47.546;19.254;2022-12-29T15:11:00;83.03;;;56.97;;
51214;SDS011;63849;47.546;19.254;2022-12-29T15:13:47;82.38;;;55.13;;
51214;SDS011;63849;47.546;19.254;2022-12-29T15:16:47;75.18;;;51.42;;
51214;SDS011;63849;47.546;19.254;2022-12-29T15:19:20;81.72;;;52.13;;
51214;SDS011;63849;47.546;19.254;2022-12-29T15:21:47;88.63;;;57.90;;
51214;SDS011;63849;47.546;19.254;2022-12-29T15:24:13;68.90;;;46.53;;
51214;SDS011;63849;47.546;19.254;2022-12-29T15:26:40;73.22;;;47.90;;
51214;SDS011;63849;47.546;19.254;2022-12-29T15:32:02;75.72;;;49.25;;
51214;SDS011;63849;47.546;19.254;2022-12-29T15:34:47;75.97;;;50.30;;
51214;SDS011;63849;47.546;19.254;2022-12-29T15:37:19;74.00;;;48.80;;
51214;SDS011;63849;47.546;19.254;2022-12-29T15:39:55;77.00;;;48.45;;
51214;SDS011;63849;47.546;19.254;2022-12-29T15:45:05;73.47;;;45.67;;
51214;SDS011;63849;47.546;19.254;2022-12-29T15:47:36;82.05;;;48.67;;
51214;SDS011;63849;47.546;19.254;2022-12-29T15:50:07;77.07;;;47.20;;
51214;SDS011;63849;47.546;19.254;2022-12-29T15:52:34;90.60;;;56.88;;
51214;SDS011;63849;47.546;19.254;2022-12-29T15:55:04;86.28;;;56.55;;
51214;SDS011;63849;47.546;19.254;2022-12-29T15:57:31;77.57;;;50.53;;
51214;SDS011;63849;47.546;19.254;2022-12-29T16:00:03;79.60;;;53.25;;
51214;SDS011;63849;47.546;19.254;2022-12-29T16:05:18;92.78;;;52.35;;
51214;SDS011;63849;47.546;19.254;2022-12-29T16:08:21;86.75;;;53.45;;
51214;SDS011;63849;47.546;19.254;2022-12-29T16:10:58;68.72;;;45.92;;
51214;SDS011;63849;47.546;19.254;2022-12-29T16:13:32;63.55;;;43.28;;
51214;SDS011;63849;47.546;19.254;2022-12-29T16:18:41;60.65;;;40.08;;
51214;SDS011;63849;47.546;19.254;2022-12-29T16:21:14;68.90;;;42.85;;
51214;SDS011;63849;47.546;19.254;2022-12-29T16:23:44;66.45;;;43.95;;
51214;SDS011;63849;47.546;19.254;2022-12-29T16:26:17;74.75;;;47.83;;
51214;SDS011;63849;47.546;19.254;2022-12-29T16:28:46;64.05;;;42.85;;
51214;SDS011;63849;47.546;19.254;2022-12-29T16:31:20;56.88;;;37.83;;
51214;SDS011;63849;47.546;19.254;2022-12-29T16:33:54;53.67;;;36.00;;
51214;SDS011;63849;47.546;19.254;2022-12-29T16:36:28;52.83;;;33.35;;
51214;SDS011;63849;47.546;19.254;2022-12-29T16:39:04;54.40;;;37.88;;
51214;SDS011;63849;47.546;19.254;2022-12-29T16:41:48;54.53;;;35.90;;
51214;SDS011;63849;47.546;19.254;2022-12-29T16:44:25;50.47;;;34.10;;
51214;SDS011;63849;47.546;19.254;2022-12-29T16:47:35;46.50;;;33.10;;
51214;SDS011;63849;47.546;19.254;2022-12-29T16:49:46;49.22;;;33.50;;
51214;SDS011;63849;47.546;19.254;2022-12-29T16:52:23;48.47;;;34.15;;
51214;SDS011;63849;47.546;19.254;2022-12-29T16:54:56;47.35;;;33.92;;
51214;SDS011;63849;47.546;19.254;2022-12-29T16:57:30;45.88;;;29.90;;
51214;SDS011;63849;47.546;19.254;2022-12-29T17:00:06;45.63;;;31.00;;
51214;SDS011;63849;47.546;19.254;2022-12-29T17:02:42;45.33;;;30.92;;
51214;SDS011;63849;47.546;19.254;2022-12-29T17:05:16;45.42;;;31.05;;
51214;SDS011;63849;47.546;19.254;2022-12-29T17:07:43;54.47;;;36.45;;
51214;SDS011;63849;47.546;19.254;2022-12-29T17:10:09;55.30;;;37.45;;